createdAt,value
2018-12-12T00:00:52.151Z,14.00
2018-12-12T00:01:52.125Z,13.50
2018-12-12T00:02:52.068Z,13.60
2018-12-12T00:03:52.087Z,12.70
2018-12-12T00:04:52.045Z,13.90
2018-12-12T00:05:52.041Z,12.90
2018-12-12T00:06:52.054Z,14.40
2018-12-12T00:07:52.069Z,13.40
2018-12-12T00:08:52.005Z,13.30
2018-12-12T00:09:52.018Z,13.70
2018-12-12T00:10:52.061Z,13.40
2018-12-12T00:11:51.991Z,13.70
2018-12-12T00:12:51.964Z,13.20
2018-12-12T00:13:51.959Z,13.90
2018-12-12T00:14:51.934Z,13.60
2018-12-12T00:15:51.975Z,12.80
2018-12-12T00:16:52.017Z,14.20
2018-12-12T00:17:51.930Z,14.00
2018-12-12T00:18:51.905Z,13.70
2018-12-12T00:19:51.884Z,13.40
2018-12-12T00:20:51.875Z,13.30
2018-12-12T00:21:51.920Z,13.80
2018-12-12T00:22:51.871Z,14.20
2018-12-12T00:25:02.069Z,12.10
2018-12-12T00:26:02.159Z,14.90
2018-12-12T00:27:02.064Z,13.60
2018-12-12T00:28:02.038Z,14.30
2018-12-12T00:29:02.028Z,14.20
2018-12-12T00:30:02.034Z,13.20
2018-12-12T00:31:09.578Z,14.50
2018-12-12T00:32:02.011Z,14.60
2018-12-12T00:33:01.980Z,15.60
2018-12-12T00:34:01.971Z,14.50
2018-12-12T00:35:02.031Z,15.10
2018-12-12T00:36:01.981Z,14.50
2018-12-12T00:37:01.988Z,14.00
2018-12-12T00:38:01.955Z,14.40
2018-12-12T00:39:01.936Z,13.70
2018-12-12T00:40:01.912Z,14.70
2018-12-12T00:41:01.915Z,14.10
2018-12-12T00:42:01.943Z,14.10
2018-12-12T00:43:01.877Z,14.00
2018-12-12T00:44:01.874Z,14.90
2018-12-12T00:45:01.909Z,15.00
2018-12-12T00:46:01.851Z,15.30
2018-12-12T00:47:10.882Z,13.90
2018-12-12T00:48:01.836Z,14.60
2018-12-12T00:49:10.619Z,15.30
2018-12-12T00:50:09.417Z,14.80
2018-12-12T00:51:01.798Z,14.90
2018-12-12T00:52:01.873Z,14.70
2018-12-12T00:53:01.774Z,14.60
2018-12-12T00:54:01.765Z,16.00
2018-12-12T00:55:01.805Z,15.40
2018-12-12T00:56:01.753Z,15.00
2018-12-12T00:57:01.741Z,14.60
2018-12-12T00:58:01.776Z,15.70
2018-12-12T00:59:01.711Z,16.00
2018-12-12T01:00:10.306Z,15.70
2018-12-12T01:01:01.681Z,15.50
2018-12-12T01:02:01.722Z,15.60
2018-12-12T01:03:01.659Z,15.20
2018-12-12T01:04:01.686Z,15.60
2018-12-12T01:05:01.642Z,15.20
2018-12-12T01:06:01.628Z,14.80
2018-12-12T01:07:01.639Z,14.70
2018-12-12T01:08:01.611Z,15.00
2018-12-12T01:09:01.596Z,15.40
2018-12-12T01:10:01.594Z,15.70
2018-12-12T01:11:01.598Z,15.10
2018-12-12T01:12:01.581Z,15.20
2018-12-12T01:13:01.570Z,15.40
2018-12-12T01:14:01.539Z,15.00
2018-12-12T01:15:01.532Z,16.00
2018-12-12T01:16:01.513Z,15.80
2018-12-12T01:17:01.542Z,15.00
2018-12-12T01:18:01.545Z,15.00
2018-12-12T01:19:01.516Z,15.70
2018-12-12T01:20:01.528Z,16.30
2018-12-12T01:21:01.459Z,15.50
2018-12-12T01:22:01.453Z,14.80
2018-12-12T01:23:13.063Z,15.20
2018-12-12T01:24:01.485Z,15.90
2018-12-12T01:25:01.445Z,15.70
2018-12-12T01:26:01.430Z,14.50
2018-12-12T01:27:01.407Z,15.40
2018-12-12T01:28:01.411Z,14.90
2018-12-12T01:29:01.402Z,15.70
2018-12-12T01:30:01.413Z,16.10
2018-12-12T01:31:01.410Z,15.20
2018-12-12T01:32:01.344Z,15.20
2018-12-12T01:33:01.373Z,15.10
2018-12-12T01:34:01.363Z,15.00
2018-12-12T01:35:01.313Z,15.60
2018-12-12T01:36:01.335Z,15.80
2018-12-12T01:37:01.307Z,15.70
2018-12-12T01:38:13.151Z,16.40
2018-12-12T01:39:01.298Z,16.00
2018-12-12T01:40:01.256Z,15.00
2018-12-12T01:41:01.261Z,15.40
2018-12-12T01:42:08.790Z,16.40
2018-12-12T01:43:01.229Z,16.10
2018-12-12T01:44:01.237Z,16.10
2018-12-12T01:45:01.213Z,16.20
2018-12-12T01:46:01.191Z,17.10
2018-12-12T01:47:01.224Z,15.80
2018-12-12T01:48:01.188Z,15.70
2018-12-12T01:49:01.206Z,15.80
2018-12-12T01:50:01.151Z,15.80
2018-12-12T01:51:01.157Z,16.20
2018-12-12T01:52:01.135Z,16.30
2018-12-12T01:53:01.159Z,17.10
2018-12-12T01:54:01.126Z,16.60
2018-12-12T01:55:10.918Z,15.30
2018-12-12T01:56:01.086Z,17.30
2018-12-12T01:57:01.075Z,16.10
2018-12-12T01:58:01.066Z,16.00
2018-12-12T01:59:01.095Z,15.30
2018-12-12T02:00:01.043Z,16.30
2018-12-12T02:01:01.036Z,17.10
2018-12-12T02:02:01.017Z,16.10
2018-12-12T02:03:01.016Z,16.70
2018-12-12T02:04:00.997Z,16.10
2018-12-12T02:05:01.019Z,16.10
2018-12-12T02:06:01.019Z,16.50
2018-12-12T02:07:00.970Z,16.20
2018-12-12T02:08:00.952Z,16.30
2018-12-12T02:09:00.959Z,16.40
2018-12-12T02:10:00.958Z,16.50
2018-12-12T02:11:00.922Z,16.20
2018-12-12T02:12:00.933Z,16.80
2018-12-12T02:13:00.900Z,17.10
2018-12-12T02:14:00.882Z,17.60
2018-12-12T02:15:00.894Z,16.30
2018-12-12T02:16:00.900Z,17.10
2018-12-12T02:17:00.869Z,16.10
2018-12-12T02:18:00.902Z,17.20
2018-12-12T02:19:00.842Z,18.00
2018-12-12T02:20:00.879Z,17.10
2018-12-12T02:21:00.821Z,16.90
2018-12-12T02:22:00.796Z,16.90
2018-12-12T02:23:00.793Z,17.10
2018-12-12T02:24:00.780Z,17.80
2018-12-12T02:25:00.813Z,17.50
2018-12-12T02:26:00.761Z,17.00
2018-12-12T02:27:00.807Z,17.30
2018-12-12T02:28:00.732Z,16.30
2018-12-12T02:29:00.721Z,17.20
2018-12-12T02:30:00.739Z,16.70
2018-12-12T02:31:00.742Z,16.90
2018-12-12T02:32:00.689Z,16.70
2018-12-12T02:33:00.679Z,17.90
2018-12-12T02:34:00.675Z,16.50
2018-12-12T02:35:00.679Z,16.90
2018-12-12T02:36:00.644Z,17.10
2018-12-12T02:37:00.693Z,16.70
2018-12-12T02:38:00.623Z,17.30
2018-12-12T02:39:00.612Z,16.60
2018-12-12T02:40:00.702Z,16.60
2018-12-12T02:41:00.615Z,17.00
2018-12-12T02:42:00.578Z,17.10
2018-12-12T02:43:00.564Z,18.40
2018-12-12T02:44:00.559Z,17.50
2018-12-12T02:45:00.567Z,17.80
2018-12-12T02:46:00.636Z,17.60
2018-12-12T02:47:00.573Z,17.80
2018-12-12T02:48:00.545Z,17.90
2018-12-12T02:49:09.324Z,18.30
2018-12-12T02:50:00.521Z,17.50
2018-12-12T02:51:00.496Z,17.70
2018-12-12T02:52:00.472Z,18.10
2018-12-12T02:53:00.503Z,18.30
2018-12-12T02:54:00.466Z,17.70
2018-12-12T02:55:00.481Z,17.90
2018-12-12T02:56:00.432Z,18.30
2018-12-12T02:57:00.418Z,18.10
2018-12-12T02:58:00.426Z,17.90
2018-12-12T02:59:00.418Z,17.60
2018-12-12T03:00:00.405Z,18.20
2018-12-12T03:01:00.378Z,19.20
2018-12-12T03:02:00.368Z,17.40
2018-12-12T03:03:00.361Z,18.10
2018-12-12T03:04:00.343Z,18.30
2018-12-12T03:05:00.392Z,17.70
2018-12-12T03:06:00.354Z,18.50
2018-12-12T03:07:00.328Z,18.90
2018-12-12T03:08:00.308Z,18.20
2018-12-12T03:09:00.291Z,18.40
2018-12-12T03:10:00.287Z,18.60
2018-12-12T03:11:00.300Z,18.00
2018-12-12T03:12:00.276Z,17.70
2018-12-12T03:13:00.276Z,18.00
2018-12-12T03:14:00.244Z,18.90
2018-12-12T03:15:00.232Z,18.80
2018-12-12T03:16:00.243Z,18.30
2018-12-12T03:17:00.204Z,18.60
2018-12-12T03:18:00.213Z,19.30
2018-12-12T03:19:00.191Z,17.80
2018-12-12T03:20:00.184Z,18.40
2018-12-12T03:21:09.857Z,18.60
2018-12-12T03:22:07.723Z,18.50
2018-12-12T03:23:00.139Z,19.10
2018-12-12T03:24:07.715Z,18.30
2018-12-12T03:25:00.133Z,18.60
2018-12-12T03:26:00.108Z,18.00
2018-12-12T03:27:00.131Z,17.80
2018-12-12T03:28:00.100Z,18.40
2018-12-12T03:29:00.078Z,18.70
2018-12-12T03:30:00.086Z,18.70
2018-12-12T03:31:00.056Z,18.80
2018-12-12T03:32:00.090Z,18.90
2018-12-12T03:33:00.040Z,18.70
2018-12-12T03:34:00.044Z,19.10
2018-12-12T03:35:00.013Z,18.60
2018-12-12T03:36:00.034Z,19.00
2018-12-12T03:37:00.038Z,18.90
2018-12-12T03:37:59.982Z,19.30
2018-12-12T03:38:59.972Z,19.30
2018-12-12T03:39:59.964Z,19.90
2018-12-12T03:40:59.991Z,19.70
2018-12-12T03:41:59.975Z,19.00
2018-12-12T03:42:59.957Z,18.80
2018-12-12T03:43:59.912Z,17.90
2018-12-12T03:44:59.911Z,19.00
2018-12-12T03:45:59.900Z,18.60
2018-12-12T03:46:59.954Z,18.50
2018-12-12T03:47:59.923Z,19.00
2018-12-12T03:48:59.906Z,19.60
2018-12-12T03:49:59.857Z,18.60
2018-12-12T03:50:59.851Z,19.40
2018-12-12T03:51:59.831Z,19.00
2018-12-12T03:52:59.842Z,18.10
2018-12-12T03:53:59.808Z,18.70
2018-12-12T03:54:59.799Z,18.90
2018-12-12T03:56:07.981Z,19.40
2018-12-12T03:56:59.785Z,18.90
2018-12-12T03:57:59.915Z,18.10
2018-12-12T03:58:59.763Z,17.90
2018-12-12T03:59:59.741Z,18.30
2018-12-12T04:00:59.778Z,19.00
2018-12-12T04:02:07.319Z,18.80
2018-12-12T04:02:59.783Z,19.30
2018-12-12T04:03:59.708Z,19.20
2018-12-12T04:04:59.696Z,17.90
2018-12-12T04:05:59.692Z,18.20
2018-12-12T04:06:59.766Z,17.80
2018-12-12T04:07:59.733Z,18.70
2018-12-12T04:08:59.646Z,18.20
2018-12-12T04:09:59.657Z,17.50
2018-12-12T04:10:59.623Z,18.60
2018-12-12T04:11:59.616Z,18.50
2018-12-12T04:12:59.620Z,19.80
2018-12-12T04:13:59.862Z,20.00
2018-12-12T04:14:59.606Z,18.60
2018-12-12T04:15:59.581Z,18.90
2018-12-12T04:16:59.560Z,18.90
2018-12-12T04:17:59.569Z,18.80
2018-12-12T04:18:59.599Z,18.50
2018-12-12T04:19:59.584Z,18.40
2018-12-12T04:20:59.515Z,18.60
2018-12-12T04:21:59.511Z,18.60
2018-12-12T04:22:59.528Z,18.30
2018-12-12T04:23:59.486Z,17.90
2018-12-12T04:24:59.492Z,18.10
2018-12-12T04:25:59.467Z,18.10
2018-12-12T04:26:59.483Z,17.90
2018-12-12T04:27:59.483Z,17.50
2018-12-12T04:28:59.499Z,17.70
2018-12-12T04:29:59.420Z,17.80
2018-12-12T04:30:59.410Z,18.60
2018-12-12T04:31:59.405Z,17.70
2018-12-12T04:32:59.444Z,18.30
2018-12-12T04:33:59.425Z,18.00
2018-12-12T04:34:59.386Z,18.40
2018-12-12T04:35:59.402Z,18.90
2018-12-12T04:36:59.359Z,18.90
2018-12-12T04:37:59.376Z,18.20
2018-12-12T04:38:59.331Z,18.40
2018-12-12T04:39:59.340Z,17.40
2018-12-12T04:40:59.312Z,18.40
2018-12-12T04:41:59.298Z,18.40
2018-12-12T04:42:59.280Z,18.00
2018-12-12T04:43:59.324Z,18.80
2018-12-12T04:44:59.288Z,18.10
2018-12-12T04:45:59.313Z,19.10
2018-12-12T04:46:59.241Z,18.10
2018-12-12T04:47:59.231Z,18.30
2018-12-12T04:48:59.235Z,19.40
2018-12-12T04:49:59.214Z,18.40
2018-12-12T04:50:59.202Z,19.20
2018-12-12T04:51:59.194Z,18.10
2018-12-12T04:52:59.176Z,19.10
2018-12-12T04:53:59.191Z,19.00
2018-12-12T04:54:59.160Z,18.60
2018-12-12T04:55:59.151Z,18.40
2018-12-12T04:56:59.136Z,18.40
2018-12-12T04:57:59.123Z,18.40
2018-12-12T04:58:59.160Z,19.10
2018-12-12T04:59:59.112Z,18.10
2018-12-12T05:00:59.086Z,18.80
2018-12-12T05:01:59.085Z,18.50
2018-12-12T05:02:59.086Z,18.30
2018-12-12T05:03:59.052Z,18.00
2018-12-12T05:04:59.106Z,18.70
2018-12-12T05:05:59.065Z,18.40
2018-12-12T05:06:59.029Z,18.70
2018-12-12T05:07:59.015Z,19.50
2018-12-12T05:08:59.095Z,19.00
2018-12-12T05:09:59.008Z,18.80
2018-12-12T05:10:58.976Z,19.80
2018-12-12T05:11:58.968Z,18.70
2018-12-12T05:12:59.007Z,18.10
2018-12-12T05:13:58.956Z,18.50
2018-12-12T05:14:58.957Z,18.00
2018-12-12T05:15:58.926Z,18.20
2018-12-12T05:16:58.974Z,17.80
2018-12-12T05:17:58.903Z,17.70
2018-12-12T05:18:58.891Z,18.00
2018-12-12T05:19:58.937Z,19.10
2018-12-12T05:20:58.879Z,19.20
2018-12-12T05:21:58.883Z,18.10
2018-12-12T05:22:58.896Z,18.10
2018-12-12T05:23:58.836Z,18.30
2018-12-12T05:25:06.865Z,19.00
2018-12-12T05:26:06.381Z,19.00
2018-12-12T05:28:17.919Z,17.30
2018-12-12T05:29:26.501Z,18.80
2018-12-12T05:31:49.092Z,16.40
2018-12-12T05:32:49.059Z,19.10
2018-12-12T05:33:57.612Z,19.00
2018-12-12T05:34:49.029Z,19.00
2018-12-12T05:35:49.045Z,19.30
2018-12-12T05:36:49.020Z,19.40
2018-12-12T05:37:51.842Z,18.70
2018-12-12T05:38:48.990Z,18.70
2018-12-12T05:39:48.979Z,19.00
2018-12-12T05:40:48.990Z,17.80
2018-12-12T05:41:48.993Z,19.40
2018-12-12T05:42:48.944Z,19.20
2018-12-12T05:43:48.932Z,19.00
2018-12-12T05:44:48.986Z,18.10
2018-12-12T05:45:48.983Z,18.00
2018-12-12T05:46:48.920Z,19.20
2018-12-12T05:47:48.888Z,18.20
2018-12-12T05:48:48.901Z,18.60
2018-12-12T05:49:48.874Z,18.40
2018-12-12T05:50:48.890Z,19.40
2018-12-12T05:51:48.853Z,18.20
2018-12-12T05:52:48.859Z,19.20
2018-12-12T05:53:48.825Z,18.90
2018-12-12T05:54:57.926Z,18.40
2018-12-12T05:55:48.805Z,18.90
2018-12-12T05:56:52.285Z,19.60
2018-12-12T05:57:56.371Z,18.40
2018-12-12T05:58:48.771Z,19.30
2018-12-12T05:59:48.759Z,19.60
2018-12-12T06:00:48.750Z,18.70
2018-12-12T06:01:48.765Z,18.50
2018-12-12T06:02:48.759Z,18.70
2018-12-12T06:03:48.730Z,18.70
2018-12-12T06:04:48.709Z,19.20
2018-12-12T06:05:48.695Z,18.60
2018-12-12T06:06:48.713Z,18.60
2018-12-12T06:07:56.271Z,18.00
2018-12-12T06:09:58.914Z,17.90
2018-12-12T06:12:32.562Z,18.90
2018-12-12T06:13:42.411Z,19.30
2018-12-12T06:14:43.743Z,20.20
2018-12-12T06:15:40.859Z,19.40
2018-12-12T06:16:32.264Z,20.40
2018-12-12T06:17:40.935Z,19.60
2018-12-12T06:19:52.001Z,17.30
2018-12-12T06:22:02.521Z,17.40
2018-12-12T06:24:24.296Z,17.70
2018-12-12T06:25:24.329Z,17.70
2018-12-12T06:26:24.262Z,18.50
2018-12-12T06:27:24.273Z,18.70
2018-12-12T06:28:24.236Z,18.40
2018-12-12T06:30:42.047Z,17.70
2018-12-12T06:31:42.036Z,19.50
2018-12-12T06:32:42.093Z,19.50
2018-12-12T06:33:42.017Z,19.30
2018-12-12T06:34:42.040Z,19.90
2018-12-12T06:35:42.006Z,20.00
2018-12-12T06:36:41.980Z,19.60
2018-12-12T06:37:42.060Z,19.60
2018-12-12T06:38:41.960Z,18.60
2018-12-12T06:39:41.963Z,18.70
2018-12-12T06:40:41.937Z,18.90
2018-12-12T06:41:41.925Z,19.30
2018-12-12T06:42:41.910Z,17.40
2018-12-12T06:43:41.958Z,18.50
2018-12-12T06:44:41.893Z,17.90
2018-12-12T06:45:41.919Z,18.00
2018-12-12T06:46:41.874Z,16.80
2018-12-12T06:47:41.880Z,17.40
2018-12-12T06:48:41.935Z,17.10
2018-12-12T06:49:41.842Z,16.50
2018-12-12T06:50:41.858Z,17.10
2018-12-12T06:51:41.806Z,16.70
2018-12-12T06:52:41.799Z,16.40
2018-12-12T06:53:41.850Z,16.90
2018-12-12T06:54:41.780Z,17.00
2018-12-12T06:55:41.767Z,17.00
2018-12-12T06:56:41.757Z,16.50
2018-12-12T06:57:41.740Z,16.20
2018-12-12T06:58:41.798Z,16.50
2018-12-12T06:59:41.720Z,16.40
2018-12-12T07:00:41.711Z,17.00
2018-12-12T07:01:41.769Z,17.40
2018-12-12T07:02:41.688Z,16.40
2018-12-12T07:03:41.677Z,17.30
2018-12-12T07:04:41.814Z,17.50
2018-12-12T07:05:41.667Z,16.70
2018-12-12T07:06:41.647Z,17.70
2018-12-12T07:07:41.652Z,17.50
2018-12-12T07:08:41.624Z,18.00
2018-12-12T07:09:41.664Z,17.10
2018-12-12T07:10:41.811Z,17.70
2018-12-12T07:11:49.166Z,17.50
2018-12-12T07:12:41.586Z,17.70
2018-12-12T07:13:41.577Z,17.20
2018-12-12T07:14:41.592Z,17.80
2018-12-12T07:15:41.573Z,17.80
2018-12-12T07:16:41.536Z,17.50
2018-12-12T07:17:41.552Z,17.80
2018-12-12T07:18:49.071Z,18.10
2018-12-12T07:19:41.524Z,17.70
2018-12-12T07:20:41.501Z,17.00
2018-12-12T07:21:41.507Z,16.10
2018-12-12T07:22:41.481Z,16.90
2018-12-12T07:23:41.471Z,17.30
2018-12-12T07:24:41.542Z,16.50
2018-12-12T07:25:41.472Z,16.00
2018-12-12T07:26:41.432Z,16.10
2018-12-12T07:27:41.417Z,17.20
2018-12-12T07:28:41.404Z,16.00
2018-12-12T07:29:41.400Z,14.80
2018-12-12T07:30:41.405Z,14.60
2018-12-12T07:31:41.375Z,14.50
2018-12-12T07:32:41.377Z,13.80
2018-12-12T07:33:41.365Z,13.90
2018-12-12T07:34:41.337Z,13.50
2018-12-12T07:35:41.347Z,14.20
2018-12-12T07:36:41.315Z,13.50
2018-12-12T07:37:41.309Z,13.50
2018-12-12T07:38:41.297Z,13.50
2018-12-12T07:39:41.282Z,12.50
2018-12-12T07:40:41.298Z,12.20
2018-12-12T07:41:41.263Z,13.70
2018-12-12T07:42:41.250Z,12.00
2018-12-12T07:43:41.247Z,11.70
2018-12-12T07:44:41.236Z,12.30
2018-12-12T07:45:41.226Z,12.20
2018-12-12T07:46:42.382Z,11.30
2018-12-12T07:47:41.197Z,12.10
2018-12-12T07:48:41.182Z,12.70
2018-12-12T07:49:41.169Z,12.30
2018-12-12T07:50:41.159Z,11.60
2018-12-12T07:51:41.176Z,11.20
2018-12-12T07:52:41.161Z,11.70
2018-12-12T07:53:41.133Z,11.30
2018-12-12T07:54:48.667Z,12.30
2018-12-12T07:55:41.108Z,13.20
2018-12-12T07:56:41.121Z,12.70
2018-12-12T07:57:41.109Z,12.80
2018-12-12T07:58:41.078Z,12.90
2018-12-12T07:59:41.058Z,12.80
2018-12-12T08:00:41.073Z,11.90
2018-12-12T08:01:49.843Z,12.20
2018-12-12T08:02:41.043Z,13.00
2018-12-12T08:03:41.031Z,12.50
2018-12-12T08:04:41.010Z,14.30
2018-12-12T08:05:41.076Z,13.90
2018-12-12T08:06:40.985Z,16.90
2018-12-12T08:07:40.993Z,15.70
2018-12-12T08:08:40.967Z,15.20
2018-12-12T08:09:40.964Z,15.60
2018-12-12T08:10:40.952Z,15.30
2018-12-12T08:11:40.988Z,16.00
2018-12-12T08:12:40.938Z,16.30
2018-12-12T08:13:40.965Z,16.70
2018-12-12T08:14:40.897Z,16.10
2018-12-12T08:15:40.907Z,16.70
2018-12-12T08:16:40.891Z,16.20
2018-12-12T08:17:40.906Z,16.20
2018-12-12T08:18:40.855Z,16.50
2018-12-12T08:19:40.891Z,17.10
2018-12-12T08:20:40.905Z,16.10
2018-12-12T08:21:40.826Z,16.00
2018-12-12T08:22:40.846Z,15.60
2018-12-12T08:23:40.920Z,16.30
2018-12-12T08:24:40.786Z,15.90
2018-12-12T08:25:40.780Z,16.10
2018-12-12T08:26:40.775Z,15.30
2018-12-12T08:27:40.763Z,15.50
2018-12-12T08:28:40.762Z,15.00
2018-12-12T08:29:40.730Z,16.50
2018-12-12T08:30:40.740Z,16.00
2018-12-12T08:31:40.727Z,15.20
2018-12-12T08:32:40.718Z,15.50
2018-12-12T08:33:40.692Z,15.20
2018-12-12T08:34:40.725Z,16.50
2018-12-12T08:35:40.668Z,16.30
2018-12-12T08:36:40.733Z,15.60
2018-12-12T08:37:40.646Z,15.80
2018-12-12T08:38:40.681Z,15.80
2018-12-12T08:39:40.978Z,15.50
2018-12-12T08:40:40.737Z,16.30
2018-12-12T08:41:40.708Z,15.40
2018-12-12T08:42:40.592Z,15.80
2018-12-12T08:43:40.596Z,16.40
2018-12-12T08:44:40.575Z,16.00
2018-12-12T08:45:40.560Z,15.20
2018-12-12T08:46:40.543Z,15.80
2018-12-12T08:47:40.542Z,15.30
2018-12-12T08:48:40.554Z,15.80
2018-12-12T08:49:40.512Z,15.80
2018-12-12T08:50:40.599Z,15.20
2018-12-12T08:51:40.494Z,16.00
2018-12-12T08:52:40.509Z,15.00
2018-12-12T08:53:40.523Z,15.30
2018-12-12T08:54:40.456Z,15.60
2018-12-12T08:55:40.459Z,15.30
2018-12-12T08:56:40.438Z,15.00
2018-12-12T08:57:40.428Z,15.10
2018-12-12T08:58:40.466Z,16.00
2018-12-12T08:59:40.413Z,14.90
2018-12-12T09:00:40.397Z,16.10
2018-12-12T09:01:40.431Z,15.30
2018-12-12T09:02:40.367Z,17.30
2018-12-12T09:03:40.358Z,16.30
2018-12-12T09:04:40.369Z,16.30
2018-12-12T09:05:40.334Z,16.20
2018-12-12T09:06:40.331Z,15.20
2018-12-12T09:07:40.351Z,15.30
2018-12-12T09:08:40.306Z,14.90
2018-12-12T09:09:40.323Z,15.20
2018-12-12T09:10:40.281Z,15.60
2018-12-12T09:11:40.269Z,14.80
2018-12-12T09:12:40.258Z,14.90
2018-12-12T09:13:40.281Z,15.10
2018-12-12T09:14:40.355Z,15.90
2018-12-12T09:15:40.233Z,15.40
2018-12-12T09:16:40.221Z,15.10
2018-12-12T09:17:40.240Z,14.90
2018-12-12T09:21:13.237Z,13.90
2018-12-12T09:22:20.770Z,15.60
2018-12-12T09:23:21.787Z,17.20
2018-12-12T09:24:21.720Z,17.80
2018-12-12T09:25:23.050Z,18.70
2018-12-12T09:26:20.697Z,18.50
2018-12-12T09:27:13.153Z,17.30
2018-12-12T09:28:13.135Z,16.50
2018-12-12T09:29:13.152Z,17.80
2018-12-12T09:30:13.192Z,16.20
2018-12-12T09:31:13.098Z,15.20
2018-12-12T09:32:13.098Z,15.80
2018-12-12T09:33:13.071Z,15.00
2018-12-12T09:34:13.070Z,15.80
2018-12-12T09:35:13.084Z,16.10
2018-12-12T09:36:13.092Z,14.90
2018-12-12T09:37:13.039Z,14.90
2018-12-12T09:38:13.017Z,14.30
2018-12-12T09:39:13.082Z,14.80
2018-12-12T09:40:13.050Z,13.90
2018-12-12T09:41:13.044Z,14.30
2018-12-12T09:42:21.608Z,14.10
2018-12-12T09:43:12.984Z,14.60
2018-12-12T09:44:12.987Z,13.80
2018-12-12T09:45:12.948Z,13.10
2018-12-12T09:46:12.931Z,13.30
2018-12-12T09:47:12.940Z,12.90
2018-12-12T09:48:19.136Z,12.60
2018-12-12T09:49:13.939Z,13.80
2018-12-12T09:50:12.883Z,13.20
2018-12-12T09:51:20.442Z,12.60
2018-12-12T09:52:12.924Z,12.10
2018-12-12T09:53:12.863Z,12.00
2018-12-12T09:54:12.876Z,13.30
2018-12-12T09:55:12.834Z,13.10
2018-12-12T09:56:12.821Z,13.00
2018-12-12T09:57:12.850Z,13.20
2018-12-12T09:58:12.801Z,13.00
2018-12-12T09:59:12.787Z,12.80
2018-12-12T10:00:12.828Z,12.80
2018-12-12T10:01:12.774Z,12.60
2018-12-12T10:02:12.778Z,12.60
2018-12-12T10:03:12.755Z,13.00
2018-12-12T10:04:12.735Z,13.20
2018-12-12T10:05:12.730Z,12.00
2018-12-12T10:06:12.717Z,13.60
2018-12-12T10:07:12.736Z,12.90
2018-12-12T10:08:12.693Z,12.00
2018-12-12T10:09:12.686Z,11.90
2018-12-12T10:10:12.676Z,11.40
2018-12-12T10:11:12.668Z,12.30
2018-12-12T10:12:12.679Z,12.70
2018-12-12T10:13:12.670Z,13.50
2018-12-12T10:14:12.626Z,12.40
2018-12-12T10:15:12.619Z,12.40
2018-12-12T10:16:12.627Z,12.70
2018-12-12T10:17:12.596Z,13.50
2018-12-12T10:18:12.601Z,13.80
2018-12-12T10:19:12.576Z,12.60
2018-12-12T10:20:12.597Z,13.00
2018-12-12T10:21:12.551Z,12.60
2018-12-12T10:22:12.587Z,13.30
2018-12-12T10:23:12.603Z,13.20
2018-12-12T10:24:12.524Z,14.70
2018-12-12T10:25:12.512Z,13.40
2018-12-12T10:26:12.534Z,14.10
2018-12-12T10:27:12.490Z,12.90
2018-12-12T10:28:12.480Z,13.20
2018-12-12T10:29:12.479Z,13.70
2018-12-12T10:30:12.457Z,12.90
2018-12-12T10:31:12.450Z,11.70
2018-12-12T10:32:12.436Z,11.70
2018-12-12T10:33:12.430Z,12.00
2018-12-12T10:34:12.432Z,11.70
2018-12-12T10:35:12.406Z,12.10
2018-12-12T10:36:12.398Z,10.80
2018-12-12T10:37:12.387Z,11.30
2018-12-12T10:38:12.367Z,11.60
2018-12-12T10:39:12.377Z,11.90
2018-12-12T10:40:12.348Z,12.50
2018-12-12T10:41:12.339Z,11.60
2018-12-12T10:42:12.341Z,11.60
2018-12-12T10:43:12.364Z,11.90
2018-12-12T10:44:12.334Z,11.20
2018-12-12T10:45:12.298Z,11.70
2018-12-12T10:46:12.285Z,11.30
2018-12-12T10:47:12.281Z,10.70
2018-12-12T10:48:12.288Z,11.10
2018-12-12T10:49:12.302Z,11.10
2018-12-12T10:50:12.284Z,11.20
2018-12-12T10:51:12.225Z,11.00
2018-12-12T10:52:12.224Z,10.30
2018-12-12T10:53:12.245Z,10.90
2018-12-12T10:54:12.199Z,10.70
2018-12-12T10:55:12.243Z,10.50
2018-12-12T10:56:12.176Z,10.20
2018-12-12T10:57:12.169Z,10.00
2018-12-12T10:58:12.188Z,10.10
2018-12-12T10:59:12.149Z,9.80
2018-12-12T11:00:12.801Z,10.10
2018-12-12T11:01:12.157Z,10.50
2018-12-12T11:02:12.115Z,9.40
2018-12-12T11:03:12.097Z,9.50
2018-12-12T11:04:12.091Z,9.60
2018-12-12T11:05:12.098Z,10.00
2018-12-12T11:06:12.100Z,9.40
2018-12-12T11:07:12.049Z,9.10
2018-12-12T11:08:12.073Z,9.70
2018-12-12T11:09:12.111Z,10.30
2018-12-12T11:10:12.115Z,9.90
2018-12-12T11:11:12.027Z,9.50
2018-12-12T11:12:12.022Z,9.50
2018-12-12T11:13:11.991Z,9.70
2018-12-12T11:14:11.977Z,9.50
2018-12-12T11:15:11.973Z,8.20
2018-12-12T11:16:11.979Z,7.30
2018-12-12T11:17:11.952Z,7.50
2018-12-12T11:18:11.933Z,6.80
2018-12-12T11:19:11.945Z,7.50
2018-12-12T11:20:11.911Z,6.90
2018-12-12T11:21:11.900Z,6.80
2018-12-12T11:22:11.925Z,7.50
2018-12-12T11:23:11.898Z,6.80
2018-12-12T11:24:11.873Z,6.80
2018-12-12T11:25:11.867Z,7.40
2018-12-12T11:26:11.853Z,8.00
2018-12-12T11:27:11.871Z,7.80
2018-12-12T11:28:11.830Z,7.50
2018-12-12T11:29:11.812Z,7.70
2018-12-12T11:30:11.809Z,6.90
2018-12-12T11:31:11.811Z,7.10
2018-12-12T11:32:11.837Z,6.40
2018-12-12T11:33:11.789Z,7.30
2018-12-12T11:34:11.781Z,7.50
2018-12-12T11:35:11.777Z,6.90
2018-12-12T11:36:11.746Z,5.70
2018-12-12T11:37:11.756Z,6.00
2018-12-12T11:38:11.762Z,5.30
2018-12-12T11:39:11.708Z,5.20
2018-12-12T11:40:11.698Z,5.00
2018-12-12T11:41:11.735Z,5.10
2018-12-12T11:42:11.706Z,5.40
2018-12-12T11:43:11.670Z,5.60
2018-12-12T11:44:11.652Z,5.10
2018-12-12T11:45:11.650Z,4.80
2018-12-12T11:46:11.647Z,4.60
2018-12-12T11:47:11.641Z,4.50
2018-12-12T11:48:11.608Z,4.20
2018-12-12T11:49:11.598Z,4.90
2018-12-12T11:50:11.641Z,5.00
2018-12-12T11:51:11.653Z,6.40
2018-12-12T11:52:11.607Z,5.30
2018-12-12T11:53:11.765Z,5.50
2018-12-12T11:54:11.685Z,4.60
2018-12-12T11:55:11.698Z,4.60
2018-12-12T11:56:11.663Z,4.40
2018-12-12T11:57:11.613Z,4.60
2018-12-12T11:58:11.564Z,4.30
2018-12-12T11:59:11.622Z,5.20
2018-12-12T12:00:11.639Z,6.70
2018-12-12T12:01:11.584Z,5.50
2018-12-12T12:02:11.544Z,5.20
2018-12-12T12:03:11.448Z,5.20
2018-12-12T12:04:11.649Z,4.20
2018-12-12T12:05:11.522Z,4.90
2018-12-12T12:06:11.498Z,4.50
2018-12-12T12:07:11.513Z,4.60
2018-12-12T12:08:11.525Z,4.30
2018-12-12T12:09:11.461Z,3.80
2018-12-12T12:10:11.475Z,4.30
2018-12-12T12:11:11.451Z,4.20
2018-12-12T12:12:11.473Z,3.90
2018-12-12T12:13:11.505Z,4.20
2018-12-12T12:14:11.428Z,4.20
2018-12-12T12:15:11.376Z,4.40
2018-12-12T12:16:11.380Z,4.60
2018-12-12T12:17:11.302Z,5.40
2018-12-12T12:18:11.389Z,5.80
2018-12-12T12:19:11.310Z,6.00
2018-12-12T12:20:11.296Z,6.10
2018-12-12T12:21:11.287Z,5.70
2018-12-12T12:22:11.328Z,5.90
2018-12-12T12:23:11.356Z,5.70
2018-12-12T12:24:11.362Z,5.20
2018-12-12T12:25:11.359Z,5.00
2018-12-12T12:26:11.296Z,4.60
2018-12-12T12:27:11.191Z,4.10
2018-12-12T12:28:11.179Z,4.50
2018-12-12T12:29:11.182Z,4.60
2018-12-12T12:30:11.159Z,4.40
2018-12-12T12:31:11.159Z,4.20
2018-12-12T12:32:11.130Z,4.00
2018-12-12T12:33:11.153Z,4.30
2018-12-12T12:34:11.155Z,4.70
2018-12-12T12:35:11.100Z,4.10
2018-12-12T12:36:11.090Z,4.10
2018-12-12T12:37:11.087Z,3.70
2018-12-12T12:38:11.066Z,3.50
2018-12-12T12:39:11.075Z,3.60
2018-12-12T12:40:11.045Z,4.10
2018-12-12T12:41:11.032Z,3.60
2018-12-12T12:42:11.020Z,3.50
2018-12-12T12:43:11.034Z,3.90
2018-12-12T12:44:11.031Z,3.70
2018-12-12T12:45:11.140Z,4.40
2018-12-12T12:46:11.092Z,11.00
2018-12-12T12:47:10.967Z,5.30
2018-12-12T12:48:10.954Z,4.40
2018-12-12T12:49:10.965Z,4.40
2018-12-12T12:50:10.991Z,4.90
2018-12-12T12:51:10.924Z,5.00
2018-12-12T12:52:10.917Z,4.90
2018-12-12T12:53:10.940Z,4.80
2018-12-12T12:54:10.904Z,4.20
2018-12-12T12:55:10.915Z,4.00
2018-12-12T12:56:10.870Z,4.60
2018-12-12T12:57:10.863Z,4.50
2018-12-12T12:58:10.856Z,5.00
2018-12-12T12:59:10.840Z,4.70
2018-12-12T13:00:10.852Z,5.10
2018-12-12T13:01:10.823Z,4.70
2018-12-12T13:02:10.803Z,4.80
2018-12-12T13:03:10.804Z,4.90
2018-12-12T13:04:10.795Z,4.80
2018-12-12T13:05:10.774Z,4.80
2018-12-12T13:06:10.785Z,5.20
2018-12-12T13:07:10.746Z,4.90
2018-12-12T13:08:10.739Z,5.30
2018-12-12T13:09:10.729Z,5.10
2018-12-12T13:10:11.657Z,5.00
2018-12-12T13:11:14.870Z,5.10